Time;durP1;ratioP1;P1;durP2;ratioP2;P2;SDS_P1;SDS_P2;PMS_P1;PMS_P2;Temp;Humidity;BMP_temperature;BMP_pressure;BME280_temperature;BME280_humidity;BME280_pressure;Samples;Min_cycle;Max_cycle;Signal;HPM_P1;HPM_P2
2022/07/05 00:02:13;;;;;;;;;;;23.30;44.30;;;;;;5048331;28;19974;-62
2022/07/05 00:04:39;;;;;;;;;;;23.30;44.30;;;;;;5064021;28;20320;-62
2022/07/05 00:07:18;;;;;;;;;;;23.30;44.30;;;;;;5048482;28;20277;-62
2022/07/05 00:09:49;;;;;;;;;;;23.30;44.30;;;;;;5067181;28;20019;-63
2022/07/05 00:12:16;;;;;;;;;;;23.30;44.40;;;;;;5064875;28;20115;-62
2022/07/05 00:14:43;;;;;;;;;;;23.30;44.40;;;;;;5044333;28;19986;-62
2022/07/05 00:17:10;;;;;;;;;;;23.30;44.40;;;;;;5045704;28;19987;-62
2022/07/05 00:19:36;;;;;;;;;;;23.30;44.40;;;;;;5063555;28;19938;-62
2022/07/05 00:22:03;;;;;;;;;;;23.30;44.40;;;;;;5045882;28;20015;-63
2022/07/05 00:24:30;;;;;;;;;;;23.30;44.30;;;;;;5064591;28;19920;-62
2022/07/05 00:26:58;;;;;;;;;;;23.30;44.30;;;;;;5063813;28;20425;-63
2022/07/05 00:29:25;;;;;;;;;;;23.30;44.30;;;;;;5046132;28;19928;-62
2022/07/05 00:31:52;;;;;;;;;;;23.30;44.30;;;;;;5061584;28;19924;-62
2022/07/05 00:34:19;;;;;;;;;;;23.20;44.20;;;;;;5047249;28;19975;-62
2022/07/05 00:36:45;;;;;;;;;;;23.20;44.20;;;;;;5044175;28;19921;-62
2022/07/05 00:39:12;;;;;;;;;;;23.30;44.30;;;;;;5067187;28;19928;-62
2022/07/05 00:41:39;;;;;;;;;;;23.20;44.20;;;;;;5045394;28;20329;-62
2022/07/05 00:44:08;;;;;;;;;;;23.30;44.30;;;;;;5061597;28;19997;-63
2022/07/05 00:46:35;;;;;;;;;;;23.30;44.30;;;;;;5042334;28;19975;-62
2022/07/05 00:49:01;;;;;;;;;;;23.20;44.20;;;;;;5044068;28;20015;-62
2022/07/05 00:51:30;;;;;;;;;;;23.20;44.20;;;;;;5046711;28;19955;-63
2022/07/05 00:53:56;;;;;;;;;;;23.20;44.20;;;;;;5064137;28;19927;-63
2022/07/05 00:56:23;;;;;;;;;;;23.20;44.10;;;;;;5045778;28;19948;-62
2022/07/05 00:58:50;;;;;;;;;;;23.20;44.10;;;;;;5063262;28;20004;-63
2022/07/05 01:01:18;;;;;;;;;;;23.20;44.10;;;;;;5042886;28;19975;-63
2022/07/05 01:03:45;;;;;;;;;;;23.20;44.20;;;;;;5063482;28;20276;-63
2022/07/05 01:06:12;;;;;;;;;;;23.20;44.10;;;;;;5063025;28;20366;-67
2022/07/05 01:08:39;;;;;;;;;;;23.20;44.20;;;;;;5042670;28;19920;-64
2022/07/05 01:11:09;;;;;;;;;;;23.20;44.20;;;;;;5063881;28;19933;-63
2022/07/05 01:13:36;;;;;;;;;;;23.10;44.10;;;;;;5044724;28;19924;-62
2022/07/05 01:16:03;;;;;;;;;;;23.10;44.10;;;;;;5061825;28;19924;-63
2022/07/05 01:18:32;;;;;;;;;;;23.20;44.20;;;;;;5046695;28;19980;-62
2022/07/05 01:20:59;;;;;;;;;;;23.10;44.10;;;;;;5045359;28;20032;-62
2022/07/05 01:23:30;;;;;;;;;;;23.10;44.40;;;;;;5066457;28;19920;-62
2022/07/05 01:25:57;;;;;;;;;;;23.10;44.10;;;;;;5061712;28;20221;-62
2022/07/05 01:28:24;;;;;;;;;;;23.10;44.80;;;;;;5049893;28;20340;-65
2022/07/05 01:30:51;;;;;;;;;;;23.10;44.10;;;;;;5058601;28;19936;-63
2022/07/05 01:33:17;;;;;;;;;;;23.10;44.10;;;;;;5046447;28;20353;-63
2022/07/05 01:35:45;;;;;;;;;;;23.10;44.10;;;;;;5061042;28;20020;-62
2022/07/05 01:38:16;;;;;;;;;;;23.10;44.20;;;;;;5063791;28;19921;-63
2022/07/05 01:40:44;;;;;;;;;;;23.10;44.20;;;;;;5043068;28;19973;-62
2022/07/05 01:43:11;;;;;;;;;;;23.10;44.30;;;;;;5040468;28;19983;-63
2022/07/05 01:45:41;;;;;;;;;;;23.10;44.20;;;;;;5061656;28;19921;-63
2022/07/05 01:48:09;;;;;;;;;;;23.10;44.20;;;;;;5044242;28;19970;-62
2022/07/05 01:50:37;;;;;;;;;;;23.10;44.20;;;;;;5062876;28;20427;-62
2022/07/05 01:53:04;;;;;;;;;;;23.10;44.20;;;;;;5043168;28;20373;-62
2022/07/05 01:55:30;;;;;;;;;;;23.10;44.30;;;;;;5040868;28;19975;-63
2022/07/05 01:57:59;;;;;;;;;;;23.10;44.30;;;;;;5067023;28;19973;-63
2022/07/05 02:00:26;;;;;;;;;;;23.10;44.30;;;;;;5060518;28;20418;-63
2022/07/05 02:02:53;;;;;;;;;;;23.10;44.30;;;;;;5045204;28;19944;-63
2022/07/05 02:05:19;;;;;;;;;;;23.10;44.30;;;;;;5041846;28;19932;-62
2022/07/05 02:07:47;;;;;;;;;;;23.10;44.30;;;;;;5061021;28;20315;-62
2022/07/05 02:10:14;;;;;;;;;;;23.00;44.20;;;;;;5063035;28;20389;-62
2022/07/05 02:12:52;;;;;;;;;;;23.10;44.30;;;;;;5062930;28;20316;-62
2022/07/05 02:15:20;;;;;;;;;;;23.00;44.20;;;;;;5041236;28;19960;-62
2022/07/05 02:17:47;;;;;;;;;;;23.00;44.60;;;;;;5041962;28;19920;-63
2022/07/05 02:20:13;;;;;;;;;;;23.00;44.30;;;;;;5058491;28;20019;-62
2022/07/05 02:22:40;;;;;;;;;;;23.00;44.20;;;;;;5042212;28;20376;-62
2022/07/05 02:25:07;;;;;;;;;;;23.00;44.30;;;;;;5057833;28;19932;-62
2022/07/05 02:27:34;;;;;;;;;;;23.00;44.30;;;;;;5042417;28;19932;-63
2022/07/05 02:30:01;;;;;;;;;;;23.00;44.30;;;;;;5062800;28;19975;-62
2022/07/05 02:32:31;;;;;;;;;;;23.00;44.30;;;;;;5064935;28;20389;-63
2022/07/05 02:34:58;;;;;;;;;;;23.00;44.30;;;;;;5045712;28;19920;-62
2022/07/05 02:37:24;;;;;;;;;;;23.00;44.30;;;;;;5062324;28;20373;-63
2022/07/05 02:39:51;;;;;;;;;;;23.00;44.30;;;;;;5064214;28;19933;-62
2022/07/05 02:42:18;;;;;;;;;;;23.00;44.30;;;;;;5063877;28;20360;-63
2022/07/05 02:44:46;;;;;;;;;;;23.00;44.30;;;;;;5066106;28;19921;-62
2022/07/05 02:47:12;;;;;;;;;;;23.00;44.40;;;;;;5045604;28;20003;-62
2022/07/05 02:49:41;;;;;;;;;;;23.00;44.40;;;;;;5060338;28;19966;-62
2022/07/05 02:52:07;;;;;;;;;;;22.90;44.30;;;;;;5065167;28;19928;-63
2022/07/05 02:54:34;;;;;;;;;;;23.00;44.30;;;;;;5045238;28;19921;-62
2022/07/05 02:57:01;;;;;;;;;;;22.90;44.30;;;;;;5042685;28;19924;-64
2022/07/05 02:59:28;;;;;;;;;;;23.00;44.40;;;;;;5048995;28;19963;-62
2022/07/05 03:01:54;;;;;;;;;;;22.90;44.30;;;;;;5047324;28;20311;-63
2022/07/05 03:04:24;;;;;;;;;;;22.90;44.30;;;;;;5047533;28;19986;-62
2022/07/05 03:06:52;;;;;;;;;;;22.90;44.30;;;;;;5063337;28;19921;-63
2022/07/05 03:09:19;;;;;;;;;;;22.90;44.30;;;;;;5046085;28;20003;-62
2022/07/05 03:11:46;;;;;;;;;;;22.90;44.40;;;;;;5067482;28;19986;-63
2022/07/05 03:14:12;;;;;;;;;;;22.90;44.40;;;;;;5064817;28;19987;-62
2022/07/05 03:16:39;;;;;;;;;;;22.90;44.40;;;;;;5064818;28;20016;-62
2022/07/05 03:19:06;;;;;;;;;;;22.90;44.40;;;;;;5063589;28;20285;-62
2022/07/05 03:21:33;;;;;;;;;;;22.90;44.40;;;;;;5046547;28;20362;-62
2022/07/05 03:24:01;;;;;;;;;;;22.90;44.40;;;;;;5066380;28;19921;-62
2022/07/05 03:26:27;;;;;;;;;;;22.90;44.40;;;;;;5062072;28;19943;-62
2022/07/05 03:28:57;;;;;;;;;;;22.90;44.40;;;;;;5066534;28;20302;-62
2022/07/05 03:31:24;;;;;;;;;;;22.90;44.50;;;;;;5064399;28;19921;-62
2022/07/05 03:33:50;;;;;;;;;;;22.90;44.50;;;;;;5051121;28;20262;-62
2022/07/05 03:36:19;;;;;;;;;;;22.90;44.50;;;;;;5062692;28;19968;-64
2022/07/05 03:38:46;;;;;;;;;;;22.90;44.50;;;;;;5067132;28;20380;-62
2022/07/05 03:41:14;;;;;;;;;;;22.90;44.40;;;;;;5043810;28;19929;-62
2022/07/05 03:43:41;;;;;;;;;;;22.90;44.50;;;;;;5065808;28;19920;-62
2022/07/05 03:46:07;;;;;;;;;;;22.90;44.50;;;;;;5062451;28;20038;-62
2022/07/05 03:48:34;;;;;;;;;;;22.90;44.50;;;;;;5047828;28;19960;-62
2022/07/05 03:51:01;;;;;;;;;;;22.90;44.50;;;;;;5061991;28;19937;-62
2022/07/05 03:53:28;;;;;;;;;;;22.90;44.50;;;;;;5047549;28;19920;-62
2022/07/05 03:55:54;;;;;;;;;;;22.90;44.50;;;;;;5044744;28;19924;-62
2022/07/05 03:58:23;;;;;;;;;;;22.80;44.40;;;;;;5063156;28;20346;-62
2022/07/05 04:00:49;;;;;;;;;;;22.90;44.50;;;;;;5061998;28;19982;-63
2022/07/05 04:03:16;;;;;;;;;;;22.80;44.40;;;;;;5049302;28;19928;-62
2022/07/05 04:05:43;;;;;;;;;;;22.90;44.50;;;;;;5067761;28;19928;-62
2022/07/05 04:08:09;;;;;;;;;;;22.90;44.50;;;;;;5062285;28;19924;-62
2022/07/05 04:10:36;;;;;;;;;;;22.80;44.50;;;;;;5048370;28;20668;-62
2022/07/05 04:13:03;;;;;;;;;;;22.90;45.10;;;;;;5062432;28;20440;-62
2022/07/05 04:15:31;;;;;;;;;;;22.80;44.50;;;;;;5064022;28;19968;-62
2022/07/05 04:17:58;;;;;;;;;;;22.80;44.50;;;;;;5046423;28;19927;-62
2022/07/05 04:20:25;;;;;;;;;;;22.90;44.60;;;;;;5045960;28;19925;-62
2022/07/05 04:22:52;;;;;;;;;;;22.80;44.50;;;;;;5062044;28;19939;-62
2022/07/05 04:25:19;;;;;;;;;;;22.90;44.60;;;;;;5061727;28;20003;-62
2022/07/05 04:27:49;;;;;;;;;;;22.80;44.50;;;;;;5042374;28;19983;-62
2022/07/05 04:30:16;;;;;;;;;;;22.80;45.10;;;;;;5061788;28;20452;-62
2022/07/05 04:32:44;;;;;;;;;;;22.80;44.50;;;;;;5062952;28;19951;-62
2022/07/05 04:35:11;;;;;;;;;;;22.90;44.60;;;;;;5044879;28;20019;-62
2022/07/05 04:37:38;;;;;;;;;;;22.80;44.50;;;;;;5044419;28;19971;-62
2022/07/05 04:40:05;;;;;;;;;;;22.80;44.50;;;;;;5062511;28;20380;-62
2022/07/05 04:42:32;;;;;;;;;;;22.80;44.50;;;;;;5059094;28;19987;-62
2022/07/05 04:44:59;;;;;;;;;;;22.80;44.50;;;;;;5063340;28;19952;-62
2022/07/05 04:47:26;;;;;;;;;;;22.80;44.50;;;;;;5044232;28;19921;-62
2022/07/05 04:49:54;;;;;;;;;;;22.80;44.50;;;;;;5044800;28;20460;-62
2022/07/05 04:52:21;;;;;;;;;;;22.80;44.50;;;;;;5046594;28;19931;-62
2022/07/05 04:54:48;;;;;;;;;;;22.80;44.50;;;;;;5062634;28;19921;-62
2022/07/05 04:57:15;;;;;;;;;;;22.80;44.50;;;;;;5059253;28;19925;-62
2022/07/05 04:59:41;;;;;;;;;;;22.80;44.50;;;;;;5046442;28;20358;-62
2022/07/05 05:02:08;;;;;;;;;;;22.80;44.50;;;;;;5045706;28;19975;-62
2022/07/05 05:04:35;;;;;;;;;;;22.80;44.50;;;;;;5064827;28;19924;-62
2022/07/05 05:07:03;;;;;;;;;;;22.80;44.50;;;;;;5045374;28;19925;-63
2022/07/05 05:09:30;;;;;;;;;;;22.80;44.50;;;;;;5044289;28;19921;-62
2022/07/05 05:11:57;;;;;;;;;;;22.80;44.50;;;;;;5061200;28;19925;-62
2022/07/05 05:14:23;;;;;;;;;;;22.80;44.50;;;;;;5063581;28;19966;-63
2022/07/05 05:16:50;;;;;;;;;;;22.80;44.50;;;;;;5043983;28;20132;-62
2022/07/05 05:19:17;;;;;;;;;;;22.80;44.50;;;;;;5042394;28;20347;-62
2022/07/05 05:21:43;;;;;;;;;;;22.80;44.40;;;;;;5042717;28;19974;-62
2022/07/05 05:24:12;;;;;;;;;;;22.80;44.50;;;;;;5059800;28;19932;-62
2022/07/05 05:26:38;;;;;;;;;;;22.80;44.40;;;;;;5059057;28;19982;-62
2022/07/05 05:29:05;;;;;;;;;;;22.80;45.00;;;;;;5062487;28;19971;-62
2022/07/05 05:31:32;;;;;;;;;;;22.80;44.40;;;;;;5043785;28;19978;-62
2022/07/05 05:33:58;;;;;;;;;;;22.80;44.40;;;;;;5062973;28;19974;-63
2022/07/05 05:36:25;;;;;;;;;;;22.80;44.40;;;;;;5064220;28;19921;-62
2022/07/05 05:38:52;;;;;;;;;;;22.80;44.40;;;;;;5042605;28;19921;-62
2022/07/05 05:41:20;;;;;;;;;;;22.80;44.40;;;;;;5061228;28;19940;-62
2022/07/05 05:43:47;;;;;;;;;;;22.80;44.40;;;;;;5044979;28;19966;-62
2022/07/05 05:46:13;;;;;;;;;;;22.80;44.40;;;;;;5041268;28;19951;-62
2022/07/05 05:48:40;;;;;;;;;;;22.80;44.40;;;;;;5064352;28;19959;-63
2022/07/05 05:51:08;;;;;;;;;;;22.80;44.30;;;;;;5060483;28;19964;-62
2022/07/05 05:53:35;;;;;;;;;;;22.80;44.30;;;;;;5060380;28;19920;-63
2022/07/05 05:56:02;;;;;;;;;;;22.80;44.30;;;;;;5046790;28;19927;-63
2022/07/05 05:58:30;;;;;;;;;;;22.80;44.30;;;;;;5058456;28;19925;-62
2022/07/05 06:00:57;;;;;;;;;;;22.80;44.20;;;;;;5060716;28;19975;-63
2022/07/05 06:03:24;;;;;;;;;;;22.80;44.20;;;;;;5062130;28;20375;-63
2022/07/05 06:05:51;;;;;;;;;;;22.80;44.20;;;;;;5039113;28;19925;-62
2022/07/05 06:08:18;;;;;;;;;;;22.80;44.30;;;;;;5060725;28;19924;-62
2022/07/05 06:10:45;;;;;;;;;;;22.80;44.20;;;;;;5056879;28;19929;-63
2022/07/05 06:13:12;;;;;;;;;;;22.80;44.20;;;;;;5058056;28;19928;-62
2022/07/05 06:15:40;;;;;;;;;;;22.70;44.10;;;;;;5051096;28;19974;-62
2022/07/05 06:18:07;;;;;;;;;;;22.80;44.20;;;;;;5046715;28;19924;-63
2022/07/05 06:20:35;;;;;;;;;;;22.80;44.20;;;;;;5046599;28;19928;-62
2022/07/05 06:23:02;;;;;;;;;;;22.80;44.20;;;;;;5064717;28;19921;-62
2022/07/05 06:25:29;;;;;;;;;;;22.80;44.20;;;;;;5064188;28;20451;-63
2022/07/05 06:27:56;;;;;;;;;;;22.80;44.20;;;;;;5064237;28;20283;-62
2022/07/05 06:30:23;;;;;;;;;;;22.80;44.20;;;;;;5064848;28;20365;-62
2022/07/05 06:32:51;;;;;;;;;;;22.80;44.20;;;;;;5063889;28;20362;-62
2022/07/05 06:35:18;;;;;;;;;;;22.80;44.20;;;;;;5045755;28;19931;-62
2022/07/05 06:37:45;;;;;;;;;;;22.80;44.20;;;;;;5061759;28;19925;-62
2022/07/05 06:40:12;;;;;;;;;;;22.80;44.20;;;;;;5066785;28;19925;-63
2022/07/05 06:42:39;;;;;;;;;;;22.80;44.20;;;;;;5034585;28;19925;-62
2022/07/05 06:45:06;;;;;;;;;;;22.80;44.20;;;;;;5067265;28;19947;-62
2022/07/05 06:47:33;;;;;;;;;;;22.80;44.20;;;;;;5049248;28;20011;-63
2022/07/05 06:50:03;;;;;;;;;;;22.80;44.30;;;;;;5044685;28;19928;-63
2022/07/05 06:52:31;;;;;;;;;;;22.80;44.30;;;;;;5039976;28;19936;-62
2022/07/05 06:54:58;;;;;;;;;;;22.80;44.30;;;;;;5069847;28;20365;-62
2022/07/05 06:57:24;;;;;;;;;;;22.80;44.30;;;;;;5060942;28;19928;-63
2022/07/05 06:59:51;;;;;;;;;;;22.80;44.30;;;;;;5054648;28;19924;-64
2022/07/05 07:02:18;;;;;;;;;;;22.80;44.30;;;;;;5044269;28;19956;-62
2022/07/05 07:04:45;;;;;;;;;;;22.80;44.30;;;;;;5052825;28;19928;-62
2022/07/05 07:09:57;;;;;;;;;;;22.80;44.40;;;;;;5042794;28;19920;-67
2022/07/05 07:12:24;;;;;;;;;;;22.80;44.40;;;;;;5060171;28;20260;-67
2022/07/05 07:14:50;;;;;;;;;;;22.90;44.50;;;;;;5072211;28;19920;-64
2022/07/05 07:17:17;;;;;;;;;;;22.80;44.50;;;;;;5043829;28;19962;-66
2022/07/05 07:19:44;;;;;;;;;;;22.80;44.50;;;;;;5065562;28;19968;-66
2022/07/05 07:22:11;;;;;;;;;;;22.90;44.70;;;;;;5067228;28;19920;-66
2022/07/05 07:24:39;;;;;;;;;;;22.90;44.70;;;;;;5048471;28;19996;-67
2022/07/05 07:27:07;;;;;;;;;;;22.90;44.70;;;;;;5045162;28;19924;-66
2022/07/05 07:29:34;;;;;;;;;;;22.90;44.70;;;;;;5065817;28;19994;-66
2022/07/05 07:32:01;;;;;;;;;;;22.90;44.70;;;;;;5059582;28;19925;-66
2022/07/05 07:34:28;;;;;;;;;;;22.90;44.70;;;;;;5063769;28;20015;-66
2022/07/05 07:36:55;;;;;;;;;;;22.90;44.70;;;;;;5042430;28;20312;-66
2022/07/05 07:39:21;;;;;;;;;;;22.90;44.60;;;;;;5058863;28;19951;-65
2022/07/05 07:41:50;;;;;;;;;;;22.90;44.60;;;;;;5047173;28;19921;-66
2022/07/05 07:44:17;;;;;;;;;;;22.90;44.60;;;;;;5065593;28;19924;-66
2022/07/05 07:46:43;;;;;;;;;;;22.90;44.60;;;;;;5062233;28;19928;-66
2022/07/05 07:49:10;;;;;;;;;;;22.90;44.50;;;;;;5060664;28;19932;-67
2022/07/05 07:51:37;;;;;;;;;;;22.90;44.50;;;;;;5061095;28;20388;-66
2022/07/05 07:54:04;;;;;;;;;;;22.90;44.40;;;;;;5044821;28;19932;-67
2022/07/05 07:56:31;;;;;;;;;;;22.90;44.40;;;;;;5044097;28;20016;-67
2022/07/05 07:58:59;;;;;;;;;;;23.00;44.40;;;;;;5060585;28;19966;-67
2022/07/05 08:01:26;;;;;;;;;;;22.90;44.10;;;;;;5064622;28;19932;-67
2022/07/05 08:03:53;;;;;;;;;;;22.90;44.00;;;;;;5062357;28;19933;-67
2022/07/05 08:06:20;;;;;;;;;;;22.90;43.90;;;;;;5060910;28;19932;-66
2022/07/05 08:08:47;;;;;;;;;;;23.00;43.80;;;;;;5063447;28;19920;-66
2022/07/05 08:11:14;;;;;;;;;;;22.90;43.60;;;;;;5045929;28;19939;-67
2022/07/05 08:13:42;;;;;;;;;;;22.90;43.40;;;;;;5060619;28;19951;-67
2022/07/05 08:16:10;;;;;;;;;;;23.00;43.20;;;;;;5061213;28;19951;-66
2022/07/05 08:21:35;;;;;;;;;;;22.90;43.00;;;;;;5065756;28;19921;-69
2022/07/05 08:24:02;;;;;;;;;;;23.00;42.90;;;;;;5059328;28;19959;-65
2022/07/05 08:26:30;;;;;;;;;;;22.90;42.60;;;;;;5041427;28;20138;-66
2022/07/05 08:28:58;;;;;;;;;;;23.00;42.30;;;;;;5046448;28;19996;-66
2022/07/05 08:31:26;;;;;;;;;;;22.90;42.10;;;;;;5046695;28;20039;-66
2022/07/05 08:33:52;;;;;;;;;;;22.90;41.90;;;;;;5042023;28;19928;-64
2022/07/05 08:36:19;;;;;;;;;;;22.90;41.60;;;;;;5045803;28;19924;-65
2022/07/05 08:38:46;;;;;;;;;;;22.90;41.40;;;;;;5044970;28;19921;-66
2022/07/05 08:41:13;;;;;;;;;;;22.90;41.20;;;;;;5064466;28;19956;-65
2022/07/05 08:43:40;;;;;;;;;;;22.90;41.10;;;;;;5062841;28;19921;-61
2022/07/05 08:46:08;;;;;;;;;;;22.90;40.90;;;;;;5062577;28;20086;-65
2022/07/05 08:48:41;;;;;;;;;;;22.90;41.10;;;;;;5045112;28;20688;-64
2022/07/05 08:51:09;;;;;;;;;;;22.90;41.00;;;;;;5061478;28;20284;-64
2022/07/05 08:53:36;;;;;;;;;;;22.90;41.00;;;;;;5060688;28;19921;-66
2022/07/05 08:56:03;;;;;;;;;;;22.90;40.90;;;;;;5066416;28;19990;-66
2022/07/05 08:58:30;;;;;;;;;;;22.90;40.90;;;;;;5044657;28;20875;-67
2022/07/05 09:00:56;;;;;;;;;;;22.90;40.80;;;;;;5066256;28;19924;-65
2022/07/05 09:03:23;;;;;;;;;;;22.90;41.00;;;;;;5061798;28;19932;-64
2022/07/05 09:05:51;;;;;;;;;;;22.90;41.10;;;;;;5061159;28;19920;-65
2022/07/05 09:08:18;;;;;;;;;;;23.00;41.10;;;;;;5041079;28;20381;-64
2022/07/05 09:10:45;;;;;;;;;;;23.00;40.90;;;;;;5044054;28;19920;-65
2022/07/05 09:13:11;;;;;;;;;;;23.00;40.80;;;;;;5045463;28;19978;-64
2022/07/05 09:15:39;;;;;;;;;;;23.00;40.90;;;;;;5061934;28;19921;-65
2022/07/05 09:18:05;;;;;;;;;;;23.00;40.90;;;;;;5056588;28;19929;-65
2022/07/05 09:20:32;;;;;;;;;;;23.00;40.80;;;;;;5047524;28;20023;-65
2022/07/05 09:23:01;;;;;;;;;;;23.00;40.80;;;;;;5065773;28;19928;-65
2022/07/05 09:25:30;;;;;;;;;;;23.00;40.80;;;;;;5064242;28;20382;-61
2022/07/05 09:27:57;;;;;;;;;;;23.00;40.80;;;;;;5065404;28;19920;-61
2022/07/05 09:30:31;;;;;;;;;;;23.00;40.80;;;;;;5044562;28;19976;-61
2022/07/05 09:33:05;;;;;;;;;;;23.00;40.40;;;;;;5061785;28;19928;-65
2022/07/05 09:35:32;;;;;;;;;;;23.00;40.90;;;;;;5041073;28;19928;-65
2022/07/05 09:37:59;;;;;;;;;;;23.00;40.90;;;;;;5068253;28;19974;-65
2022/07/05 09:40:27;;;;;;;;;;;23.00;40.80;;;;;;5040905;28;20365;-64
2022/07/05 09:42:53;;;;;;;;;;;23.00;40.70;;;;;;5053324;28;19928;-65
2022/07/05 09:45:24;;;;;;;;;;;23.10;40.70;;;;;;5072575;28;19924;-65
2022/07/05 09:47:51;;;;;;;;;;;23.10;40.70;;;;;;5061709;28;19964;-65
2022/07/05 09:50:32;;;;;;;;;;;23.10;40.60;;;;;;5050677;28;19971;-65
2022/07/05 09:52:59;;;;;;;;;;;23.10;40.50;;;;;;5056914;28;19927;-65
2022/07/05 09:55:27;;;;;;;;;;;23.10;40.40;;;;;;5056522;28;19936;-65
2022/07/05 09:57:55;;;;;;;;;;;23.10;40.50;;;;;;5052568;28;19928;-65
2022/07/05 10:00:21;;;;;;;;;;;23.10;40.40;;;;;;5060851;28;19986;-64
2022/07/05 10:02:50;;;;;;;;;;;23.10;40.30;;;;;;5056819;28;19967;-64
2022/07/05 10:05:17;;;;;;;;;;;23.10;40.30;;;;;;5059296;28;19925;-64
2022/07/05 10:07:45;;;;;;;;;;;23.10;40.20;;;;;;5059516;28;19932;-64
2022/07/05 10:10:12;;;;;;;;;;;23.10;40.30;;;;;;5041289;28;19921;-64
2022/07/05 10:12:41;;;;;;;;;;;23.10;40.00;;;;;;5044063;28;19924;-65
2022/07/05 10:15:09;;;;;;;;;;;23.10;39.90;;;;;;5060695;28;20019;-65
2022/07/05 10:17:37;;;;;;;;;;;23.10;39.80;;;;;;5044674;28;19931;-66
2022/07/05 10:20:04;;;;;;;;;;;23.10;39.80;;;;;;5043102;28;20431;-65
2022/07/05 10:22:30;;;;;;;;;;;23.10;39.90;;;;;;5042762;28;20226;-64
2022/07/05 10:24:57;;;;;;;;;;;23.10;39.90;;;;;;5063427;28;19925;-65
2022/07/05 10:27:25;;;;;;;;;;;23.10;39.90;;;;;;5043467;28;19931;-65
2022/07/05 10:29:53;;;;;;;;;;;23.10;39.80;;;;;;5041072;28;19980;-65
2022/07/05 10:32:21;;;;;;;;;;;23.10;39.80;;;;;;5044643;28;19966;-65
2022/07/05 10:34:49;;;;;;;;;;;23.10;39.90;;;;;;5041740;28;19951;-66
2022/07/05 10:37:16;;;;;;;;;;;23.10;39.80;;;;;;5059694;28;19936;-65
2022/07/05 10:39:42;;;;;;;;;;;23.10;39.80;;;;;;5058529;28;19927;-64
2022/07/05 10:42:09;;;;;;;;;;;23.10;39.90;;;;;;5037975;28;19951;-61
2022/07/05 10:44:37;;;;;;;;;;;23.10;40.00;;;;;;5036255;28;19924;-61
2022/07/05 10:47:10;;;;;;;;;;;23.10;40.00;;;;;;5031000;28;20320;-61
2022/07/05 10:49:37;;;;;;;;;;;23.10;40.00;;;;;;5050371;28;19921;-61
2022/07/05 10:52:05;;;;;;;;;;;23.10;40.00;;;;;;5050615;28;19947;-61
2022/07/05 10:54:32;;;;;;;;;;;23.10;40.00;;;;;;5057086;28;19921;-61
2022/07/05 10:57:17;;;;;;;;;;;23.10;40.00;;;;;;5050335;28;19925;-61
2022/07/05 11:00:05;;;;;;;;;;;23.10;39.90;;;;;;5038025;28;19969;-61
2022/07/05 11:02:33;;;;;;;;;;;23.10;40.00;;;;;;5046282;28;20355;-61
2022/07/05 11:05:00;;;;;;;;;;;23.10;39.90;;;;;;5046224;28;19928;-61
2022/07/05 11:07:42;;;;;;;;;;;23.10;39.90;;;;;;5035524;28;20259;-66
2022/07/05 11:10:09;;;;;;;;;;;23.10;40.00;;;;;;5062337;28;19959;-66
2022/07/05 11:12:39;;;;;;;;;;;23.20;40.20;;;;;;5045866;28;19947;-68
2022/07/05 11:15:07;;;;;;;;;;;23.10;40.10;;;;;;5064384;28;20328;-68
2022/07/05 11:17:36;;;;;;;;;;;23.20;40.10;;;;;;5067599;28;20339;-65
2022/07/05 11:20:05;;;;;;;;;;;23.20;40.10;;;;;;5058942;28;19934;-65
2022/07/05 11:22:32;;;;;;;;;;;23.10;40.00;;;;;;5054317;28;19932;-65
2022/07/05 11:24:59;;;;;;;;;;;23.20;40.10;;;;;;5069849;28;19986;-66
2022/07/05 11:27:25;;;;;;;;;;;23.20;40.10;;;;;;5070968;28;20430;-66
2022/07/05 11:29:52;;;;;;;;;;;23.20;40.10;;;;;;5069867;28;20333;-67
2022/07/05 11:32:19;;;;;;;;;;;23.20;40.00;;;;;;5070963;28;19921;-65
2022/07/05 11:34:48;;;;;;;;;;;23.20;40.00;;;;;;5042284;28;19925;-65
2022/07/05 11:37:23;;;;;;;;;;;23.20;40.00;;;;;;5064627;28;19963;-66
2022/07/05 11:40:05;;;;;;;;;;;23.20;40.00;;;;;;5065012;28;20003;-65
2022/07/05 11:42:31;;;;;;;;;;;23.20;40.00;;;;;;5041871;28;19924;-66
2022/07/05 11:44:59;;;;;;;;;;;23.20;40.00;;;;;;5035317;28;19921;-62
2022/07/05 11:47:26;;;;;;;;;;;23.20;40.00;;;;;;5034314;28;19924;-66
2022/07/05 11:50:06;;;;;;;;;;;23.20;40.10;;;;;;5038649;28;19925;-67
2022/07/05 11:52:34;;;;;;;;;;;23.20;40.00;;;;;;5062996;28;19997;-66
2022/07/05 11:55:01;;;;;;;;;;;23.20;40.00;;;;;;5053153;28;19925;-66
2022/07/05 11:57:28;;;;;;;;;;;23.20;40.00;;;;;;5061929;28;20405;-69
2022/07/05 11:59:55;;;;;;;;;;;23.30;40.10;;;;;;5059613;28;19928;-66
2022/07/05 12:02:21;;;;;;;;;;;23.30;40.00;;;;;;5041449;28;19928;-67
2022/07/05 12:04:48;;;;;;;;;;;23.30;40.00;;;;;;5034909;28;20369;-65
2022/07/05 12:07:25;;;;;;;;;;;23.30;40.00;;;;;;5063100;28;20320;-67
2022/07/05 12:15:21;;;;;;;;;;;23.30;40.00;;;;;;5041960;28;19924;-67
2022/07/05 12:17:48;;;;;;;;;;;23.30;40.00;;;;;;5051756;28;19924;-66
2022/07/05 12:20:15;;;;;;;;;;;23.30;40.00;;;;;;5053147;28;19924;-66
2022/07/05 12:22:44;;;;;;;;;;;23.30;39.90;;;;;;5049246;28;19936;-67
2022/07/05 12:25:12;;;;;;;;;;;23.30;39.90;;;;;;5055369;28;20019;-67
2022/07/05 12:27:39;;;;;;;;;;;23.30;39.90;;;;;;5063035;28;19990;-67
2022/07/05 12:30:08;;;;;;;;;;;23.30;39.90;;;;;;5058620;28;19986;-68
2022/07/05 12:32:36;;;;;;;;;;;23.30;39.90;;;;;;5060482;28;20428;-68
2022/07/05 12:35:05;;;;;;;;;;;23.30;39.90;;;;;;5051874;28;20193;-66
2022/07/05 12:37:33;;;;;;;;;;;23.30;39.90;;;;;;5046669;28;20373;-67
2022/07/05 12:40:06;;;;;;;;;;;23.30;39.90;;;;;;5057252;28;19921;-68
2022/07/05 12:42:33;;;;;;;;;;;23.30;39.90;;;;;;5049547;28;19927;-66
2022/07/05 12:45:12;;;;;;;;;;;23.30;40.00;;;;;;5051083;28;19993;-61
2022/07/05 12:47:48;;;;;;;;;;;23.40;40.10;;;;;;5056869;28;19928;-62
2022/07/05 12:50:15;;;;;;;;;;;23.40;40.20;;;;;;5053774;28;19920;-65
2022/07/05 12:53:00;;;;;;;;;;;23.40;40.20;;;;;;5051274;28;19928;-66
2022/07/05 12:58:19;;;;;;;;;;;23.40;40.10;;;;;;5046401;28;19959;-67
2022/07/05 13:00:46;;;;;;;;;;;23.40;40.00;;;;;;5053957;28;19983;-68
2022/07/05 13:03:13;;;;;;;;;;;23.40;40.00;;;;;;5064094;28;19929;-66
2022/07/05 13:05:40;;;;;;;;;;;23.40;40.00;;;;;;5059811;28;20015;-65
2022/07/05 13:08:06;;;;;;;;;;;23.40;40.00;;;;;;5060269;28;20026;-66
2022/07/05 13:10:35;;;;;;;;;;;23.40;40.10;;;;;;5064771;28;19931;-65
2022/07/05 13:13:02;;;;;;;;;;;23.40;40.00;;;;;;5059337;28;19925;-66
2022/07/05 13:15:29;;;;;;;;;;;23.40;40.00;;;;;;5044204;28;20257;-66
2022/07/05 13:17:55;;;;;;;;;;;23.40;40.00;;;;;;5061393;28;19974;-65
2022/07/05 13:20:22;;;;;;;;;;;23.40;40.00;;;;;;5041226;28;19982;-66
2022/07/05 13:22:49;;;;;;;;;;;23.40;40.00;;;;;;5040859;28;19951;-65
2022/07/05 13:25:16;;;;;;;;;;;23.40;39.90;;;;;;5059905;28;19954;-66
2022/07/05 13:27:45;;;;;;;;;;;23.40;39.90;;;;;;5040160;28;20305;-65
2022/07/05 13:30:13;;;;;;;;;;;23.40;39.80;;;;;;5066002;28;19932;-66
2022/07/05 13:32:40;;;;;;;;;;;23.50;39.90;;;;;;5056320;28;19972;-66
2022/07/05 13:35:07;;;;;;;;;;;23.40;39.80;;;;;;5041234;28;19964;-65
2022/07/05 13:37:34;;;;;;;;;;;23.40;39.80;;;;;;5047690;28;19928;-66
2022/07/05 13:40:01;;;;;;;;;;;23.50;40.00;;;;;;5059220;28;19928;-66
2022/07/05 13:42:27;;;;;;;;;;;23.50;39.90;;;;;;5059627;28;20007;-65
2022/07/05 13:44:55;;;;;;;;;;;23.50;39.80;;;;;;5041430;28;19925;-66
2022/07/05 13:47:22;;;;;;;;;;;23.50;39.80;;;;;;5060235;28;19921;-66
2022/07/05 13:50:30;;;;;;;;;;;23.50;39.80;;;;;;5044870;28;19920;-66
2022/07/05 13:52:36;;;;;;;;;;;23.50;39.70;;;;;;5041106;28;19920;-64
2022/07/05 13:55:02;;;;;;;;;;;23.40;39.60;;;;;;5059182;28;19970;-63
2022/07/05 13:57:31;;;;;;;;;;;23.50;39.60;;;;;;5058572;28;19925;-63
2022/07/05 13:59:59;;;;;;;;;;;23.40;39.60;;;;;;5040050;28;20370;-63
2022/07/05 14:02:26;;;;;;;;;;;23.40;39.60;;;;;;5039084;28;19925;-64
2022/07/05 14:04:53;;;;;;;;;;;23.40;39.70;;;;;;5042620;28;20273;-65
2022/07/05 14:07:20;;;;;;;;;;;23.40;39.80;;;;;;5041035;28;19920;-64
2022/07/05 14:09:47;;;;;;;;;;;23.40;40.00;;;;;;5038998;28;20014;-63
2022/07/05 14:12:13;;;;;;;;;;;23.40;40.20;;;;;;5043104;28;19963;-68
2022/07/05 14:14:40;;;;;;;;;;;23.40;40.30;;;;;;5062614;28;20299;-65
2022/07/05 14:17:08;;;;;;;;;;;23.40;40.40;;;;;;5061412;28;19943;-67
2022/07/05 14:19:36;;;;;;;;;;;23.40;40.50;;;;;;5055976;28;19960;-66
2022/07/05 14:22:03;;;;;;;;;;;23.40;40.60;;;;;;5040498;28;20357;-67
2022/07/05 14:24:29;;;;;;;;;;;23.40;40.70;;;;;;5064997;28;20385;-68
2022/07/05 14:26:56;;;;;;;;;;;23.40;40.80;;;;;;5041626;28;19921;-67
2022/07/05 14:29:23;;;;;;;;;;;23.50;40.90;;;;;;5046052;28;19956;-66
2022/07/05 14:31:50;;;;;;;;;;;23.40;40.80;;;;;;5057749;28;19920;-66
2022/07/05 14:34:18;;;;;;;;;;;23.40;40.90;;;;;;5042034;28;20449;-66